Aérodrome :
LOGIN :

S'inscrire | Disclaimer

   EN    FR    IT 

 










Légende :    VFR   VFR Marginal   IFR   IFR Intensif   IFR Très Intensif
Visi : 
Plafond : 
>= 8 km
>= 3000ft
5 à 8 km
1000 à 3000 ft
1500m à 5 km
500 à 1000 ft
800 à 1500m
200 à 500 ft
< 800m
< 200 ft
Symboles :   Orages  Brouillard  Fortes neiges  Fortes précipitations  Vent > 20 kt
SIGMETs :   Divers  Orages  Givrage  Turbulence  Onde Orograph.  Cendres Volcan.







- Altitude de l'aérodrome : 1017 ft
- Voir les cartes d'approche


LFSL - Brive Souillac

DERNIER METAR :
  • 161030Z AUTO 11005KT 090V150 CAVOK 12/M05 Q1028 NOSIG

METARs EXPIRÉS :
  • 161000Z AUTO 11003KT 090V170 CAVOK 11/M05 Q1028 NOSIG
  • 160930Z AUTO 12006KT CAVOK 09/M05 Q1028 NOSIG
  • 160900Z AUTO 13005KT CAVOK 07/M04 Q1028 NOSIG
  • 160830Z AUTO 13003KT CAVOK 05/M02 Q1028 NOSIG
  • 160800Z AUTO 00000KT CAVOK 00/M01 Q1028 NOSIG

TAF TAF LFSL
Valide du 16 à 09h jusqu'au 16 à 18h UTC


160800Z 1609/1618 13005KT CAVOK
Pas de NOTAMs connus pour ce terrain.



MET'MAP, la Météo Aéronautique d'un coup d'oeil ! - Copyright ORBIFLY Décembre 2007 - Disclaimer

ORBIFLY MET'MAP TEAM :

Programmation & Développement : Alexandra Zaïnal
Conception & Développement : Baudouin d'Aumeries
Co-Programmation & Développement : Marc-Olivier Méhu
Soutien technique & logistique : Manuel Goepfert

Contact : metmap@orbifly.com




SOURCES & CREDITS :

   NOAA